sensor_id;sensor_type;location;lat;lon;timestamp;pressure;altitude;pressure_sealevel;temperature;humidity
55022;BME280;68328;35.990;-86.756;2023-03-01T18:09:23;98447.12;;;28.54;24.87
55022;BME280;68328;35.990;-86.756;2023-03-01T18:11:48;98438.16;;;28.97;24.45
55022;BME280;68328;35.990;-86.756;2023-03-01T18:14:13;98436.65;;;28.85;24.50
55022;BME280;68328;35.990;-86.756;2023-03-01T18:16:39;98434.45;;;28.87;24.47
55022;BME280;68328;35.990;-86.756;2023-03-01T18:19:04;98425.55;;;29.08;24.20
55022;BME280;68328;35.990;-86.756;2023-03-01T18:21:30;98425.24;;;29.25;24.16
55022;BME280;68328;35.990;-86.756;2023-03-01T18:23:55;98432.32;;;29.17;24.10
55022;BME280;68328;35.990;-86.756;2023-03-01T18:26:21;98433.16;;;29.30;23.88
55022;BME280;68328;35.990;-86.756;2023-03-01T18:28:46;98429.95;;;29.25;24.10
55022;BME280;68328;35.990;-86.756;2023-03-01T18:31:14;98425.22;;;29.17;24.01
55022;BME280;68328;35.990;-86.756;2023-03-01T18:33:39;98422.75;;;29.50;23.80
55022;BME280;68328;35.990;-86.756;2023-03-01T18:36:03;98423.14;;;29.56;23.82
55022;BME280;68328;35.990;-86.756;2023-03-01T18:38:28;98426.36;;;29.44;23.81
55022;BME280;68328;35.990;-86.756;2023-03-01T18:40:54;98431.72;;;29.51;23.70
55022;BME280;68328;35.990;-86.756;2023-03-01T18:43:20;98422.70;;;29.41;23.85
55022;BME280;68328;35.990;-86.756;2023-03-01T18:45:45;98432.90;;;29.08;24.00
55022;BME280;68328;35.990;-86.756;2023-03-01T18:48:10;98428.91;;;29.38;23.86
55022;BME280;68328;35.990;-86.756;2023-03-01T18:50:36;98424.04;;;29.43;23.81
55022;BME280;68328;35.990;-86.756;2023-03-01T18:53:01;98427.32;;;29.09;24.07
55022;BME280;68328;35.990;-86.756;2023-03-01T18:55:26;98433.34;;;29.10;23.85
55022;BME280;68328;35.990;-86.756;2023-03-01T18:57:51;98439.81;;;29.38;23.80
55022;BME280;68328;35.990;-86.756;2023-03-01T19:00:18;98431.88;;;29.38;23.83
55022;BME280;68328;35.990;-86.756;2023-03-01T19:02:42;98421.70;;;29.39;23.86
55022;BME280;68328;35.990;-86.756;2023-03-01T19:05:08;98418.04;;;29.42;23.93
55022;BME280;68328;35.990;-86.756;2023-03-01T19:07:33;98410.39;;;29.32;23.89
55022;BME280;68328;35.990;-86.756;2023-03-01T19:09:58;98412.98;;;29.48;24.02
55022;BME280;68328;35.990;-86.756;2023-03-01T19:12:24;98409.11;;;29.27;23.96
55022;BME280;68328;35.990;-86.756;2023-03-01T19:14:49;98412.95;;;29.71;23.57
55022;BME280;68328;35.990;-86.756;2023-03-01T19:17:15;98413.25;;;29.43;23.58
55022;BME280;68328;35.990;-86.756;2023-03-01T19:19:40;98410.64;;;29.65;23.90
55022;BME280;68328;35.990;-86.756;2023-03-01T19:22:05;98397.99;;;29.51;23.73
55022;BME280;68328;35.990;-86.756;2023-03-01T19:24:31;98398.47;;;29.72;23.81
55022;BME280;68328;35.990;-86.756;2023-03-01T19:26:57;98395.55;;;29.42;23.90
55022;BME280;68328;35.990;-86.756;2023-03-01T19:29:22;98396.91;;;29.49;23.72
55022;BME280;68328;35.990;-86.756;2023-03-01T19:31:47;98406.41;;;29.51;23.67
55022;BME280;68328;35.990;-86.756;2023-03-01T19:34:13;98405.27;;;29.74;23.55
55022;BME280;68328;35.990;-86.756;2023-03-01T19:36:38;98407.83;;;29.40;23.99
55022;BME280;68328;35.990;-86.756;2023-03-01T19:39:05;98409.39;;;29.41;23.95
55022;BME280;68328;35.990;-86.756;2023-03-01T19:41:28;98409.33;;;29.43;23.92
55022;BME280;68328;35.990;-86.756;2023-03-01T19:43:54;98405.04;;;29.47;23.79
55022;BME280;68328;35.990;-86.756;2023-03-01T19:46:20;98399.54;;;29.16;23.96
55022;BME280;68328;35.990;-86.756;2023-03-01T19:48:45;98401.46;;;29.65;23.96
55022;BME280;68328;35.990;-86.756;2023-03-01T19:51:10;98405.63;;;29.74;23.87
55022;BME280;68328;35.990;-86.756;2023-03-01T19:53:38;98403.60;;;29.47;23.87
55022;BME280;68328;35.990;-86.756;2023-03-01T19:56:02;98399.51;;;29.81;23.69
55022;BME280;68328;35.990;-86.756;2023-03-01T19:58:29;98397.37;;;29.81;23.82
55022;BME280;68328;35.990;-86.756;2023-03-01T20:00:53;98392.80;;;29.62;23.58
55022;BME280;68328;35.990;-86.756;2023-03-01T20:03:18;98382.90;;;29.57;23.55
55022;BME280;68328;35.990;-86.756;2023-03-01T20:05:44;98389.87;;;29.52;23.91
55022;BME280;68328;35.990;-86.756;2023-03-01T20:08:09;98386.37;;;29.25;23.83
55022;BME280;68328;35.990;-86.756;2023-03-01T20:10:35;98376.48;;;28.89;23.89
55022;BME280;68328;35.990;-86.756;2023-03-01T20:13:00;98371.94;;;29.42;23.66
55022;BME280;68328;35.990;-86.756;2023-03-01T20:15:26;98376.96;;;29.18;23.93
55022;BME280;68328;35.990;-86.756;2023-03-01T20:17:52;98371.85;;;29.27;23.85
55022;BME280;68328;35.990;-86.756;2023-03-01T20:20:17;98367.75;;;29.04;23.85
55022;BME280;68328;35.990;-86.756;2023-03-01T20:22:42;98367.19;;;29.25;23.92
55022;BME280;68328;35.990;-86.756;2023-03-01T20:25:09;98368.70;;;29.12;23.98
55022;BME280;68328;35.990;-86.756;2023-03-01T20:27:34;98361.64;;;29.32;24.06
55022;BME280;68328;35.990;-86.756;2023-03-01T20:29:59;98358.29;;;29.51;23.90
55022;BME280;68328;35.990;-86.756;2023-03-01T20:32:24;98351.80;;;29.39;23.79
55022;BME280;68328;35.990;-86.756;2023-03-01T20:34:50;98354.66;;;29.44;23.98
55022;BME280;68328;35.990;-86.756;2023-03-01T20:37:15;98348.24;;;29.33;23.90
55022;BME280;68328;35.990;-86.756;2023-03-01T20:39:40;98343.22;;;29.26;24.03
55022;BME280;68328;35.990;-86.756;2023-03-01T20:42:06;98335.54;;;29.15;24.22
55022;BME280;68328;35.990;-86.756;2023-03-01T20:44:32;98329.53;;;29.50;24.06
55022;BME280;68328;35.990;-86.756;2023-03-01T20:46:57;98322.28;;;29.37;23.91
55022;BME280;68328;35.990;-86.756;2023-03-01T20:49:22;98320.67;;;29.51;23.73
55022;BME280;68328;35.990;-86.756;2023-03-01T20:51:47;98317.10;;;29.39;24.07
55022;BME280;68328;35.990;-86.756;2023-03-01T20:54:13;98314.58;;;29.20;24.05
55022;BME280;68328;35.990;-86.756;2023-03-01T20:56:40;98314.50;;;29.42;23.91
55022;BME280;68328;35.990;-86.756;2023-03-01T20:59:07;98316.50;;;29.30;23.97
55022;BME280;68328;35.990;-86.756;2023-03-01T21:01:31;98302.40;;;29.39;23.92
55022;BME280;68328;35.990;-86.756;2023-03-01T21:03:58;98297.78;;;29.58;23.75
55022;BME280;68328;35.990;-86.756;2023-03-01T21:06:22;98280.65;;;29.58;23.97
55022;BME280;68328;35.990;-86.756;2023-03-01T21:08:47;98273.74;;;29.47;24.10
55022;BME280;68328;35.990;-86.756;2023-03-01T21:11:12;98273.28;;;29.55;24.04
55022;BME280;68328;35.990;-86.756;2023-03-01T21:13:37;98272.02;;;28.95;24.19
55022;BME280;68328;35.990;-86.756;2023-03-01T21:16:05;98271.03;;;29.61;24.03
55022;BME280;68328;35.990;-86.756;2023-03-01T21:18:30;98268.66;;;29.40;23.96
55022;BME280;68328;35.990;-86.756;2023-03-01T21:20:54;98260.57;;;29.40;23.96
55022;BME280;68328;35.990;-86.756;2023-03-01T21:23:19;98257.09;;;29.51;23.87
55022;BME280;68328;35.990;-86.756;2023-03-01T21:25:44;98253.00;;;29.73;23.93
55022;BME280;68328;35.990;-86.756;2023-03-01T21:28:10;98250.71;;;29.46;23.95
55022;BME280;68328;35.990;-86.756;2023-03-01T21:30:35;98249.61;;;29.73;24.00
55022;BME280;68328;35.990;-86.756;2023-03-01T21:33:01;98238.39;;;29.66;23.99
55022;BME280;68328;35.990;-86.756;2023-03-01T21:35:26;98230.01;;;29.31;24.14
55022;BME280;68328;35.990;-86.756;2023-03-01T21:37:52;98227.80;;;29.69;23.99
55022;BME280;68328;35.990;-86.756;2023-03-01T21:40:17;98234.68;;;29.37;24.12
55022;BME280;68328;35.990;-86.756;2023-03-01T21:42:42;98236.18;;;29.32;24.12
55022;BME280;68328;35.990;-86.756;2023-03-01T21:45:09;98228.07;;;29.34;24.09
55022;BME280;68328;35.990;-86.756;2023-03-01T21:47:33;98212.03;;;29.49;24.00
55022;BME280;68328;35.990;-86.756;2023-03-01T21:49:59;98209.36;;;29.47;24.02
55022;BME280;68328;35.990;-86.756;2023-03-01T21:52:25;98214.62;;;29.67;24.05
55022;BME280;68328;35.990;-86.756;2023-03-01T21:54:51;98220.19;;;29.62;24.12
55022;BME280;68328;35.990;-86.756;2023-03-01T21:57:16;98222.59;;;29.37;24.10
55022;BME280;68328;35.990;-86.756;2023-03-01T21:59:41;98217.56;;;29.50;23.99
55022;BME280;68328;35.990;-86.756;2023-03-01T22:02:06;98211.32;;;29.56;23.96
55022;BME280;68328;35.990;-86.756;2023-03-01T22:04:32;98205.44;;;29.83;23.95
55022;BME280;68328;35.990;-86.756;2023-03-01T22:06:57;98204.33;;;29.73;23.78
55022;BME280;68328;35.990;-86.756;2023-03-01T22:09:23;98206.47;;;29.75;23.89
55022;BME280;68328;35.990;-86.756;2023-03-01T22:11:49;98204.98;;;29.59;23.97
55022;BME280;68328;35.990;-86.756;2023-03-01T22:14:14;98208.38;;;29.88;23.98
55022;BME280;68328;35.990;-86.756;2023-03-01T22:16:40;98218.74;;;29.44;23.90
55022;BME280;68328;35.990;-86.756;2023-03-01T22:19:05;98211.71;;;29.57;24.00
55022;BME280;68328;35.990;-86.756;2023-03-01T22:21:30;98202.86;;;29.53;23.86
55022;BME280;68328;35.990;-86.756;2023-03-01T22:23:55;98195.22;;;29.54;23.82
55022;BME280;68328;35.990;-86.756;2023-03-01T22:26:22;98204.06;;;29.77;23.86
55022;BME280;68328;35.990;-86.756;2023-03-01T22:28:45;98214.14;;;29.81;23.83
55022;BME280;68328;35.990;-86.756;2023-03-01T22:31:10;98222.15;;;29.81;23.84
55022;BME280;68328;35.990;-86.756;2023-03-01T22:33:36;98227.23;;;29.67;23.76
55022;BME280;68328;35.990;-86.756;2023-03-01T22:36:01;98235.18;;;30.07;23.81
55022;BME280;68328;35.990;-86.756;2023-03-01T22:38:27;98241.28;;;29.95;23.76
55022;BME280;68328;35.990;-86.756;2023-03-01T22:40:57;98249.97;;;29.97;23.83
55022;BME280;68328;35.990;-86.756;2023-03-01T22:43:18;98255.20;;;29.98;23.72
55022;BME280;68328;35.990;-86.756;2023-03-01T22:45:44;98256.66;;;29.77;23.73
55022;BME280;68328;35.990;-86.756;2023-03-01T22:48:09;98254.72;;;29.82;23.81
55022;BME280;68328;35.990;-86.756;2023-03-01T22:50:35;98251.38;;;30.13;23.66
55022;BME280;68328;35.990;-86.756;2023-03-01T22:53:01;98254.39;;;30.06;23.69
55022;BME280;68328;35.990;-86.756;2023-03-01T22:55:27;98255.27;;;30.09;23.77
55022;BME280;68328;35.990;-86.756;2023-03-01T22:57:52;98265.08;;;30.13;23.68
55022;BME280;68328;35.990;-86.756;2023-03-01T23:00:18;98279.93;;;30.17;23.72
55022;BME280;68328;35.990;-86.756;2023-03-01T23:02:43;98293.38;;;29.94;23.63
55022;BME280;68328;35.990;-86.756;2023-03-01T23:05:09;98292.88;;;30.20;23.71
55022;BME280;68328;35.990;-86.756;2023-03-01T23:07:34;98306.23;;;30.19;23.74
55022;BME280;68328;35.990;-86.756;2023-03-01T23:09:59;98302.55;;;29.96;23.68
55022;BME280;68328;35.990;-86.756;2023-03-01T23:12:25;98316.99;;;30.31;23.66
55022;BME280;68328;35.990;-86.756;2023-03-01T23:14:51;98334.76;;;30.07;23.79
55022;BME280;68328;35.990;-86.756;2023-03-01T23:17:16;98342.85;;;30.01;23.84
55022;BME280;68328;35.990;-86.756;2023-03-01T23:19:41;98351.23;;;30.32;23.78
55022;BME280;68328;35.990;-86.756;2023-03-01T23:22:07;98351.14;;;30.26;23.86
55022;BME280;68328;35.990;-86.756;2023-03-01T23:24:33;98347.38;;;30.06;23.82
55022;BME280;68328;35.990;-86.756;2023-03-01T23:26:59;98334.71;;;30.05;23.88
55022;BME280;68328;35.990;-86.756;2023-03-01T23:29:23;98330.91;;;30.34;23.77
55022;BME280;68328;35.990;-86.756;2023-03-01T23:31:48;98323.48;;;30.25;23.95
55022;BME280;68328;35.990;-86.756;2023-03-01T23:34:14;98326.68;;;30.27;23.94
55022;BME280;68328;35.990;-86.756;2023-03-01T23:36:40;98323.57;;;30.13;23.86
55022;BME280;68328;35.990;-86.756;2023-03-01T23:39:06;98330.79;;;30.16;23.83
55022;BME280;68328;35.990;-86.756;2023-03-01T23:41:32;98340.39;;;30.53;23.97
55022;BME280;68328;35.990;-86.756;2023-03-01T23:43:57;98342.77;;;30.15;23.80
55022;BME280;68328;35.990;-86.756;2023-03-01T23:46:23;98351.42;;;30.28;23.89
55022;BME280;68328;35.990;-86.756;2023-03-01T23:48:47;98354.04;;;30.16;23.83
55022;BME280;68328;35.990;-86.756;2023-03-01T23:51:14;98355.52;;;30.18;23.82
55022;BME280;68328;35.990;-86.756;2023-03-01T23:53:43;98362.70;;;30.32;23.84
55022;BME280;68328;35.990;-86.756;2023-03-01T23:56:04;98360.94;;;30.09;23.93
55022;BME280;68328;35.990;-86.756;2023-03-01T23:58:29;98361.48;;;30.14;23.80
